Airfield :
LOGIN :

Register | Disclaimer

   EN    FR    IT 

 










Legend :    VFR   Marginal VFR   IFR   Intensive IFR   Very Intensive IFR
Visi :
Ceiling :
>= 8 km
>= 3000ft
5 to 8 km
1000 to 3000 ft
1500m to 5 km
500 to 1000 ft
800 to 1500m
200 to 500 ft
< 800m
< 200 ft
Symbols :   Thunderstorms  Fog  Heavy snow  Heavy precipitations  Wind > 20 kt
SIGMETs :     Misc.  Thunderstorms  Icing  Turbulence  Mountain Waves  Volcanic Ashes






- Airport Elevation : 125 ft
- IATA code : MGL


EDLN - Mönchengladbach

CURRENT METAR :
  • 230820Z 22006KT 170V280 9999 SCT024 BKN030 17/11 Q1015

EXPIRED METARs :
  • 230750Z 23007KT 190V280 9999 SCT024 16/11 Q1015
  • 230720Z 22006KT 190V270 9999 SCT020 16/11 Q1015
  • 230650Z 23006KT 190V270 9999 FEW019 15/11 Q1015
  • 230620Z 22004KT 170V260 CAVOK 15/11 Q1015
  • 230550Z 19004KT 140V230 CAVOK 14/11 Q1014
  • 230520Z AUTO VRB02KT 9999 // NCD 14/11 Q1014
  • 230450Z AUTO 12003KT 100V160 9999 // NCD 12/10 Q1014
  • 230420Z AUTO 18003KT 130V210 9999 // NCD 12/10 Q1014
  • 230350Z AUTO VRB02KT 9999 // NCD 11/09 Q1014

TAF TAF EDLN
Valid from the 23 at 09:00 until the 23 at 18:00 UTC


230800Z 2309/2318 23006KT 9999 SCT025
BECMG 2315/2317 30003KT



MET'MAP, your aeronautical weather chart ! - Copyright ORBIFLY December 2007 - Disclaimer

ORBIFLY MET'MAP TEAM :

Programming & Development : Alexandra Zaïnal
Original concept : Baudouin d'Aumeries
Technical & hardware support : Manuel Goepfert
Assistance : Marc-Olivier Méhu




SOURCES & CREDITS :

   NOAA